Time;durP1;ratioP1;P1;durP2;ratioP2;P2;SDS_P1;SDS_P2;PMS_P1;PMS_P2;Temp;Humidity;BMP_temperature;BMP_pressure;BME280_temperature;BME280_humidity;BME280_pressure;Samples;Min_cycle;Max_cycle;Signal;HPM_P1;HPM_P2
2023/01/11 00:01:19;;;;;;;11.55;3.70;;;;;;;-142.75;100.00;76271.09;5059616;28;20032;-67
2023/01/11 00:03:44;;;;;;;11.82;3.75;;;;;;;-142.75;100.00;76259.28;5059952;28;20024;-67
2023/01/11 00:06:10;;;;;;;7.57;3.42;;;;;;;-142.75;100.00;76259.28;5059187;28;20843;-68
2023/01/11 00:08:35;;;;;;;8.15;3.58;;;;;;;-142.75;100.00;76255.34;5059115;28;20111;-67
2023/01/11 00:11:01;;;;;;;11.70;3.97;;;;;;;-142.75;100.00;76259.28;5059353;28;20099;-66
2023/01/11 00:13:28;;;;;;;16.92;3.95;;;;;;;-142.75;100.00;76245.50;5059350;28;20020;-68
2023/01/11 00:15:53;;;;;;;9.13;3.55;;;;;;;-142.75;100.00;76247.47;5059530;28;20975;-68
2023/01/11 00:18:18;;;;;;;10.98;3.38;;;;;;;-142.75;100.00;76251.41;5040693;28;20077;-67
2023/01/11 00:20:44;;;;;;;8.73;3.28;;;;;;;-142.75;100.00;76239.59;5059542;28;20592;-68
2023/01/11 00:23:09;;;;;;;4.90;2.95;;;;;;;-142.75;100.00;76227.78;5059508;28;20020;-67
2023/01/11 00:25:35;;;;;;;15.07;3.13;;;;;;;-142.75;100.00;76227.78;5059065;28;20024;-67
2023/01/11 00:28:00;;;;;;;;;;;;;;;-142.75;100.00;76221.88;5059216;28;20663;-68
2023/01/11 00:30:25;;;;;;;6.78;3.05;;;;;;;-142.75;100.00;76233.69;5059172;28;19918;-68
2023/01/11 00:32:58;;;;;;;15.70;3.20;;;;;;;-142.75;100.00;76229.75;5059608;28;20036;-67
2023/01/11 00:35:24;;;;;;;7.22;3.67;;;;;;;-142.75;100.00;76215.97;5058993;28;20021;-68
2023/01/11 00:37:52;;;;;;;7.25;2.60;;;;;;;-142.75;100.00;76204.16;5058744;28;20097;-68
2023/01/11 00:40:17;;;;;;;9.02;2.45;;;;;;;-142.75;100.00;76223.84;5058985;28;20025;-69
2023/01/11 00:48:10;;;;;;;8.80;3.63;;;;;;;-142.75;100.00;76208.09;5058300;28;20090;-67
2023/01/11 00:50:38;;;;;;;10.07;2.78;;;;;;;-142.75;100.00;76208.09;5059121;28;20075;-67
2023/01/11 00:53:04;;;;;;;7.15;3.15;;;;;;;-142.75;100.00;76204.16;5058955;28;20032;-67
2023/01/11 00:55:33;;;;;;;7.60;3.30;;;;;;;-142.75;100.00;76204.16;5058956;28;20048;-69
2023/01/11 00:57:59;;;;;;;6.35;3.15;;;;;;;-142.75;100.00;76202.19;5058258;28;20111;-68
2023/01/11 01:00:26;;;;;;;12.13;3.70;;;;;;;-142.75;100.00;76210.06;5061097;28;20031;-67
2023/01/11 01:02:52;;;;;;;6.68;2.85;;;;;;;-142.75;100.00;76219.91;5063354;28;20032;-67
2023/01/11 01:05:17;;;;;;;9.48;3.13;;;;;;;-142.75;100.00;76208.09;5082754;22;20035;-66
2023/01/11 01:07:43;;;;;;;6.72;2.97;;;;;;;-142.75;100.00;76198.28;5102963;28;20042;-66
2023/01/11 01:10:10;;;;;;;14.73;3.63;;;;;;;-142.75;100.00;76198.28;5103133;28;20055;-66
2023/01/11 01:15:20;;;;;;;7.30;3.50;;;;;;;-142.75;100.00;76202.19;5099160;28;20043;-66
2023/01/11 01:17:46;;;;;;;6.22;3.22;;;;;;;-142.75;100.00;76204.16;5064212;28;20024;-66
2023/01/11 01:20:12;;;;;;;7.00;3.42;;;;;;;-142.75;100.00;76196.31;5082959;28;20020;-65
2023/01/11 01:22:37;;;;;;;8.07;3.30;;;;;;;-142.75;100.00;76192.38;5083036;28;20024;-67
2023/01/11 01:25:03;;;;;;;9.32;3.70;;;;;;;-142.75;100.00;76206.13;5064482;28;20046;-66
2023/01/11 01:27:28;;;;;;;;;;;;;;;-142.75;100.00;76192.38;5082506;28;20024;-67
2023/01/11 01:29:53;;;;;;;5.97;3.58;;;;;;;-142.75;100.00;76200.25;5083400;28;19920;-66
2023/01/11 01:32:19;;;;;;;7.25;3.13;;;;;;;-142.75;100.00;76198.28;5082529;28;20192;-67
2023/01/11 01:34:44;;;;;;;6.35;3.33;;;;;;;-142.75;100.00;76204.16;5082761;28;20020;-66
2023/01/11 01:37:10;;;;;;;;;;;;;;;-142.75;100.00;76208.09;5081951;28;20023;-67
2023/01/11 01:39:35;;;;;;;4.72;2.92;;;;;;;-142.75;100.00;76210.06;5082651;28;19958;-67
2023/01/11 01:42:01;;;;;;;14.90;3.17;;;;;;;-142.75;100.00;76214.00;5082352;28;20820;-67
2023/01/11 01:44:46;;;;;;;;;;;;;;;-142.75;100.00;76192.38;5083150;28;20031;-67
2023/01/11 01:47:11;;;;;;;10.02;3.63;;;;;;;-142.75;100.00;76200.25;5081455;28;19916;-67
2023/01/11 01:49:37;;;;;;;8.73;3.17;;;;;;;-142.75;100.00;76212.03;5082429;28;20058;-66
2023/01/11 01:52:03;;;;;;;9.30;3.33;;;;;;;-142.75;100.00;76210.06;5064171;28;20065;-66
2023/01/11 01:54:30;;;;;;;;;;;;;;;-142.75;100.00;76200.25;5082816;28;20127;-67
2023/01/11 01:57:01;;;;;;;7.03;3.28;;;;;;;-142.75;100.00;76214.00;5063388;28;19916;-63
2023/01/11 01:59:30;;;;;;;8.15;3.58;;;;;;;-142.75;100.00;76208.09;5082049;28;20020;-67
2023/01/11 02:01:56;;;;;;;9.82;3.25;;;;;;;-142.75;100.00;76215.97;5082451;28;20027;-64
2023/01/11 02:04:38;;;;;;;7.78;3.65;;;;;;;-142.75;100.00;76196.31;5082011;28;20020;-64
2023/01/11 02:07:22;;;;;;;8.85;3.58;;;;;;;-142.75;100.00;76204.16;5081115;28;20552;-66
2023/01/11 02:09:55;;;;;;;8.73;3.85;;;;;;;-142.75;100.00;76206.13;5082303;28;20081;-67
2023/01/11 02:12:27;;;;;;;6.85;3.63;;;;;;;-142.75;100.00;76212.03;5081054;28;20038;-63
2023/01/11 02:14:54;;;;;;;5.88;3.17;;;;;;;-142.75;100.00;76204.16;5082095;28;20032;-66
2023/01/11 02:17:20;;;;;;;7.93;3.28;;;;;;;-142.75;100.00;76206.13;5080862;28;20093;-66
2023/01/11 02:20:04;;;;;;;6.20;2.95;;;;;;;-142.75;100.00;76198.28;5081946;28;20032;-66
2023/01/11 02:22:37;;;;;;;7.07;2.88;;;;;;;-142.75;100.00;76192.38;5081677;28;20036;-67
2023/01/11 02:25:34;;;;;;;6.20;2.53;;;;;;;-142.75;100.00;76186.47;5081536;28;20047;-66
2023/01/11 02:28:27;;;;;;;7.38;2.95;;;;;;;-142.75;100.00;76188.44;5080806;28;20108;-67
2023/01/11 02:30:58;;;;;;;5.60;3.15;;;;;;;-142.75;100.00;76196.31;5081942;28;20024;-66
2023/01/11 02:33:29;;;;;;;10.95;4.05;;;;;;;-142.75;100.00;76194.34;5081287;28;20016;-66
2023/01/11 02:36:07;;;;;;;4.72;3.15;;;;;;;-142.75;100.00;76184.50;5081670;28;20058;-67
2023/01/11 02:38:45;;;;;;;6.35;3.92;;;;;;;-142.75;100.00;76180.56;5080675;28;20032;-66
2023/01/11 02:47:31;;;;;;;8.57;3.50;;;;;;;-142.75;100.00;76176.63;5080479;28;20555;-66
2023/01/11 02:50:11;;;;;;;6.85;3.08;;;;;;;-142.75;100.00;76176.63;5081102;28;20016;-63
2023/01/11 02:52:56;;;;;;;6.45;3.00;;;;;;;-142.75;100.00;76174.66;5081364;28;20168;-66
2023/01/11 02:55:26;;;;;;;6.82;3.88;;;;;;;-142.75;100.00;76188.44;5081096;28;20039;-63
2023/01/11 02:57:55;;;;;;;5.15;3.00;;;;;;;-142.75;100.00;76196.31;5081228;28;20487;-66
2023/01/11 03:00:22;;;;;;;6.93;3.72;;;;;;;-142.75;100.00;76186.47;5062936;28;20032;-66
2023/01/11 03:03:05;;;;;;;6.90;3.60;;;;;;;-142.75;100.00;76184.50;5081126;28;20020;-66
2023/01/11 03:05:31;;;;;;;7.30;3.72;;;;;;;-142.75;100.00;76178.59;5080654;28;20686;-63
2023/01/11 03:08:06;;;;;;;5.75;3.30;;;;;;;-142.75;100.00;76188.44;5079971;28;20028;-64
2023/01/11 03:10:55;;;;;;;4.63;3.10;;;;;;;-142.75;100.00;76192.38;5080794;28;20456;-66
2023/01/11 03:13:43;;;;;;;5.38;2.88;;;;;;;-142.75;100.00;76192.38;5062763;28;20133;-64
2023/01/11 03:16:38;;;;;;;6.93;3.55;;;;;;;-142.75;100.00;76196.31;5080440;28;20024;-65
2023/01/11 03:19:35;;;;;;;5.60;3.53;;;;;;;-142.75;100.00;76202.19;5080843;28;20027;-67
2023/01/11 03:22:41;;;;;;;5.55;3.45;;;;;;;-142.75;100.00;76192.38;5080550;28;20020;-66
2023/01/11 03:25:18;;;;;;;9.13;3.17;;;;;;;-142.75;100.00;76192.38;5057763;28;20101;-66
2023/01/11 03:27:56;;;;;;;5.68;2.97;;;;;;;-142.75;100.00;76184.50;5061741;28;20032;-67
2023/01/11 03:30:27;;;;;;;7.07;2.95;;;;;;;-142.75;100.00;76204.16;5062420;28;20112;-66
2023/01/11 03:33:04;;;;;;;8.48;3.08;;;;;;;-142.75;100.00;76200.25;5080597;28;20059;-66
2023/01/11 03:35:53;;;;;;;11.63;3.35;;;;;;;-142.75;100.00;76194.34;5062018;28;20106;-65
2023/01/11 03:38:47;;;;;;;8.10;3.03;;;;;;;-142.75;100.00;76217.94;5079452;28;20039;-67
2023/01/11 03:41:20;;;;;;;8.18;2.45;;;;;;;-142.75;100.00;76208.09;5077473;28;20036;-67
2023/01/11 03:43:48;;;;;;;13.95;3.28;;;;;;;-142.75;100.00;76202.19;5062210;28;20024;-66
2023/01/11 03:46:23;;;;;;;7.03;2.35;;;;;;;-142.75;100.00;76212.03;5079565;28;20031;-67
2023/01/11 03:48:54;;;;;;;7.28;2.05;;;;;;;-142.75;100.00;76227.78;5079690;28;20043;-67
2023/01/11 03:51:26;;;;;;;10.15;1.80;;;;;;;-142.75;100.00;76227.78;5079684;28;20031;-67
2023/01/11 03:53:56;;;;;;;19.92;2.92;;;;;;;-142.75;100.00;76231.72;5080283;28;20062;-67
2023/01/11 03:56:28;;;;;;;11.02;1.98;;;;;;;-142.75;100.00;76229.75;5061484;28;20024;-64
2023/01/11 03:58:53;;;;;;;16.40;2.47;;;;;;;-142.75;100.00;76225.81;5079624;28;20097;-66
2023/01/11 04:01:19;;;;;;;16.23;2.53;;;;;;;-142.75;100.00;76245.50;5079865;28;20545;-67
2023/01/11 04:03:44;;;;;;;;;;;;;;;-142.75;100.00;76257.31;5080415;28;20043;-67
2023/01/11 04:06:10;;;;;;;9.48;1.63;;;;;;;-142.75;100.00;76255.34;5079421;28;19994;-67
2023/01/11 04:08:36;;;;;;;15.60;2.22;;;;;;;-142.75;100.00;76263.22;5060711;28;20065;-67
2023/01/11 04:11:03;;;;;;;17.60;2.00;;;;;;;-142.75;100.00;76273.06;5079784;28;20020;-67
2023/01/11 04:13:28;;;;;;;18.63;2.42;;;;;;;-142.75;100.00;76273.06;5079933;28;20494;-65
2023/01/11 04:15:53;;;;;;;15.52;1.88;;;;;;;-142.75;100.00;76282.91;5080026;28;20081;-65
2023/01/11 04:18:19;;;;;;;13.38;2.53;;;;;;;-142.75;100.00;76277.00;5078660;28;20024;-66
2023/01/11 04:20:45;;;;;;;21.35;3.08;;;;;;;-142.75;100.00;76275.03;5079656;28;20081;-67
2023/01/11 04:23:11;;;;;;;15.52;1.90;;;;;;;-142.75;100.00;76286.84;5061339;28;20106;-66
2023/01/11 04:25:36;;;;;;;25.23;2.75;;;;;;;-142.75;100.00;76294.72;5079484;28;20023;-67
2023/01/11 04:28:01;;;;;;;15.68;3.13;;;;;;;-142.75;100.00;76290.78;5060356;28;20027;-66
2023/01/11 04:30:27;;;;;;;;;;;;;;;-142.75;100.00;76298.66;5079556;28;20028;-66
2023/01/11 04:32:52;;;;;;;19.55;2.20;;;;;;;-142.75;100.00;76320.31;5079704;28;20297;-67
2023/01/11 04:35:17;;;;;;;;;;;;;;;-142.75;100.00;76324.25;5060713;28;20139;-67
2023/01/11 04:37:43;;;;;;;15.38;2.47;;;;;;;-142.75;100.00;76341.97;5060419;28;19915;-67
2023/01/11 04:40:08;;;;;;;15.30;2.35;;;;;;;-142.75;100.00;76343.94;5061351;28;20027;-67
2023/01/11 04:42:34;;;;;;;;;;;;;;;-142.75;100.00;76332.13;5079968;28;20438;-67
2023/01/11 04:44:59;;;;;;;18.92;2.95;;;;;;;-142.75;100.00;76345.91;5078915;28;20000;-66
2023/01/11 04:47:25;;;;;;;20.58;2.75;;;;;;;-142.75;100.00;76357.69;5078435;28;20030;-67
2023/01/11 04:49:50;;;;;;;;;;;;;;;-142.75;100.00;76355.72;5080003;28;20043;-67
2023/01/11 04:52:18;;;;;;;16.13;2.85;;;;;;;-142.75;100.00;76379.34;5079008;28;19962;-67
2023/01/11 04:54:43;;;;;;;15.25;2.78;;;;;;;-142.75;100.00;76397.06;5079015;28;20169;-67
2023/01/11 04:57:14;;;;;;;24.88;2.45;;;;;;;-142.75;100.00;76408.88;5078346;28;20675;-66
2023/01/11 04:59:39;;;;;;;16.92;3.53;;;;;;;-142.75;100.00;76416.75;5061135;28;20020;-66
2023/01/11 05:02:05;;;;;;;8.10;2.05;;;;;;;-142.75;100.00;76436.44;5060796;28;20028;-67
2023/01/11 05:04:31;;;;;;;11.55;2.03;;;;;;;-142.75;100.00;76440.38;5079143;28;20449;-66
2023/01/11 05:06:56;;;;;;;;;;;;;;;-142.75;100.00;76454.16;5078536;28;20020;-65
2023/01/11 05:09:22;;;;;;;18.50;2.60;;;;;;;-142.75;100.00;76467.94;5060932;28;20452;-65
2023/01/11 05:11:47;;;;;;;12.63;2.00;;;;;;;-142.75;100.00;76471.88;5079208;28;20031;-67
2023/01/11 05:14:14;;;;;;;12.40;2.00;;;;;;;-142.75;100.00;76471.88;5078764;28;20522;-67
2023/01/11 05:16:39;;;;;;;11.30;1.77;;;;;;;-142.75;100.00;76485.66;5078513;28;20763;-67
2023/01/11 05:19:05;;;;;;;18.25;1.88;;;;;;;-142.75;100.00;76489.59;5078874;28;20145;-67
2023/01/11 05:21:34;;;;;;;;;;;;;;;-142.75;100.00;76511.25;5079353;28;20028;-67
2023/01/11 05:24:02;;;;;;;12.52;1.58;;;;;;;-142.75;100.00;76511.25;5078893;28;19969;-66
2023/01/11 05:26:30;;;;;;;16.58;1.95;;;;;;;-142.75;100.00;76534.84;5060296;28;20050;-66
2023/01/11 05:28:58;;;;;;;15.38;1.85;;;;;;;-142.75;100.00;76534.84;5078499;28;20027;-65
2023/01/11 05:31:24;;;;;;;15.40;2.03;;;;;;;-142.75;100.00;76542.72;5078620;28;20024;-66
2023/01/11 05:33:49;;;;;;;10.65;1.42;;;;;;;-142.75;100.00;76550.59;5078866;28;20082;-67
2023/01/11 05:36:20;;;;;;;19.35;2.42;;;;;;;-142.75;100.00;76542.72;5060706;28;20532;-68
2023/01/11 05:38:47;;;;;;;13.40;1.75;;;;;;;-142.75;100.00;76556.50;5078716;28;20035;-67
2023/01/11 05:41:13;;;;;;;12.88;1.30;;;;;;;-142.75;100.00;76580.13;5078746;28;20156;-67
2023/01/11 05:46:25;;;;;;;12.23;2.55;;;;;;;-142.75;100.00;76593.91;5080564;28;19922;-64
2023/01/11 05:48:51;;;;;;;11.57;1.48;;;;;;;-142.75;100.00;76605.72;5082165;28;20388;-67
2023/01/11 05:51:16;;;;;;;15.73;1.65;;;;;;;-142.75;100.00;76603.75;5082200;28;20028;-67
2023/01/11 05:53:42;;;;;;;15.80;2.08;;;;;;;-142.75;100.00;76599.81;5064321;28;20567;-67
2023/01/11 05:56:07;;;;;;;16.98;1.55;;;;;;;-142.75;100.00;76605.72;5064515;28;20059;-67
2023/01/11 05:58:32;;;;;;;;;;;;;;;-142.75;100.00;76603.75;5081877;28;20023;-67
2023/01/11 06:00:58;;;;;;;12.50;1.98;;;;;;;-142.75;100.00;76615.56;5081980;28;20000;-66
2023/01/11 06:03:24;;;;;;;;;;;;;;;-142.75;100.00;76625.41;5082607;28;20556;-67
2023/01/11 06:05:49;;;;;;;9.52;1.38;;;;;;;-142.75;100.00;76639.19;5064067;28;20370;-67
2023/01/11 06:08:15;;;;;;;11.93;2.05;;;;;;;-142.75;100.00;76649.03;5081421;28;20024;-68
2023/01/11 06:10:41;;;;;;;10.55;2.35;;;;;;;-142.75;100.00;76668.72;5082162;28;20034;-68
2023/01/11 06:13:25;;;;;;;10.80;1.45;;;;;;;-142.75;100.00;76670.69;5082007;28;20035;-67
2023/01/11 06:15:56;;;;;;;11.93;1.65;;;;;;;-142.75;100.00;76672.66;5082230;28;20514;-68
2023/01/11 06:18:22;;;;;;;19.60;2.40;;;;;;;-142.75;100.00;76676.59;5081326;28;20821;-67
2023/01/11 06:20:51;;;;;;;17.77;2.47;;;;;;;-142.75;100.00;76690.38;5082121;28;20028;-68
2023/01/11 06:23:16;;;;;;;15.27;2.05;;;;;;;-142.75;100.00;76694.31;5063776;28;20031;-66
2023/01/11 06:25:43;;;;;;;16.90;2.42;;;;;;;-142.75;100.00;76680.53;5081749;28;20020;-68
2023/01/11 06:28:08;;;;;;;13.73;2.15;;;;;;;-142.75;100.00;76686.44;5063069;28;20031;-68
2023/01/11 06:30:33;;;;;;;12.10;1.83;;;;;;;-142.75;100.00;76682.50;5081730;28;20059;-68
2023/01/11 06:33:04;;;;;;;18.05;2.13;;;;;;;-142.75;100.00;76690.38;5081315;28;20023;-65
2023/01/11 06:35:40;;;;;;;16.90;2.10;;;;;;;-142.75;100.00;76706.13;5081640;28;20177;-66
2023/01/11 06:38:07;;;;;;;11.75;1.90;;;;;;;-142.75;100.00;76715.97;5080850;28;20023;-66
2023/01/11 06:40:33;;;;;;;12.13;1.70;;;;;;;-142.75;100.00;76710.06;5081297;28;20027;-67
2023/01/11 06:42:58;;;;;;;13.77;1.92;;;;;;;-142.75;100.00;76731.72;5081379;28;20374;-66
2023/01/11 06:45:23;;;;;;;21.73;2.35;;;;;;;-142.75;100.00;76733.69;5063240;28;20024;-67
2023/01/11 06:47:49;;;;;;;15.80;2.33;;;;;;;-142.75;100.00;76739.59;5080767;28;20039;-65
2023/01/11 06:50:15;;;;;;;13.48;1.92;;;;;;;-142.75;100.00;76749.44;5062898;28;20042;-66
2023/01/11 06:52:40;;;;;;;18.00;1.65;;;;;;;-142.75;100.00;76731.72;5081083;28;20548;-66
2023/01/11 06:55:06;;;;;;;13.77;2.20;;;;;;;-142.75;100.00;76741.56;5080841;28;20691;-66
2023/01/11 06:57:32;;;;;;;16.05;2.22;;;;;;;-142.75;100.00;76749.44;5079721;28;20063;-66
2023/01/11 06:59:57;;;;;;;14.27;2.20;;;;;;;-142.75;100.00;76747.47;5080902;28;20015;-66
2023/01/11 07:02:23;;;;;;;15.27;2.05;;;;;;;-142.75;100.00;76757.31;5062892;28;20062;-66
2023/01/11 07:04:48;;;;;;;22.77;2.70;;;;;;;-142.75;100.00;76759.28;5081500;28;20051;-66
2023/01/11 07:07:13;;;;;;;18.70;2.00;;;;;;;-142.75;100.00;76765.19;5081807;28;20034;-65
2023/01/11 07:09:39;;;;;;;13.50;2.38;;;;;;;-142.75;100.00;76788.81;5081148;28;20421;-65
2023/01/11 07:12:04;;;;;;;16.48;2.35;;;;;;;-142.75;100.00;76798.66;5080605;28;20380;-65
2023/01/11 07:14:29;;;;;;;9.45;2.60;;;;;;;-142.75;100.00;76808.50;5080936;28;20034;-66
2023/01/11 07:16:55;;;;;;;12.93;1.95;;;;;;;-142.75;100.00;76786.84;5080328;28;20488;-65
2023/01/11 07:19:20;;;;;;;;;;;;;;;-142.75;100.00;76806.50;5081228;28;20024;-64
2023/01/11 07:21:45;;;;;;;14.65;2.25;;;;;;;-142.75;100.00;76832.09;5080907;28;19963;-65
2023/01/11 07:24:11;;;;;;;12.25;2.10;;;;;;;-142.75;100.00;76830.13;5080570;28;20023;-65
2023/01/11 07:26:40;;;;;;;19.38;2.50;;;;;;;-142.75;100.00;76820.28;5061602;28;20060;-63
2023/01/11 07:29:09;;;;;;;13.48;1.88;;;;;;;-142.75;100.00;76828.16;5080138;28;20024;-65
2023/01/11 07:31:35;;;;;;;14.05;2.35;;;;;;;-142.75;100.00;76826.19;5080448;28;20035;-66
2023/01/11 07:34:01;;;;;;;16.67;1.77;;;;;;;-142.75;100.00;76843.91;5080053;28;20027;-64
2023/01/11 07:36:26;;;;;;;13.02;2.53;;;;;;;-142.75;100.00;76851.78;5080211;28;20066;-64
2023/01/11 07:38:51;;;;;;;;;;;;;;;-142.75;100.00;76857.69;5062292;28;20073;-65
2023/01/11 07:44:00;;;;;;;10.43;1.75;;;;;;;-142.75;100.00;76865.56;5080513;28;20031;-64
2023/01/11 07:46:26;;;;;;;16.63;1.85;;;;;;;-142.75;100.00;76865.56;5079997;28;20040;-65
2023/01/11 07:48:51;;;;;;;;;;;;;;;-142.75;100.00;76873.44;5080527;28;20075;-65
2023/01/11 07:51:19;;;;;;;16.42;1.95;;;;;;;-142.75;100.00;76883.28;5080069;28;19912;-63
2023/01/11 07:53:45;;;;;;;15.18;2.22;;;;;;;-142.75;100.00;76889.19;5061882;28;20035;-65
2023/01/11 07:56:10;;;;;;;10.85;1.77;;;;;;;-142.75;100.00;76901.00;5079651;28;20032;-66
2023/01/11 07:58:35;;;;;;;;;;;;;;;-142.75;100.00;76901.00;5079838;28;20016;-66
2023/01/11 08:01:01;;;;;;;14.02;1.80;;;;;;;-142.75;100.00;76906.91;5080266;28;20021;-66
2023/01/11 08:03:26;;;;;;;17.38;2.35;;;;;;;-142.75;100.00;76912.81;5079698;28;20044;-66
2023/01/11 08:05:52;;;;;;;17.52;2.05;;;;;;;-142.75;100.00;76932.50;5080046;28;20469;-66
2023/01/11 08:08:18;;;;;;;18.67;2.00;;;;;;;-142.75;100.00;76920.69;5060846;28;20024;-66
2023/01/11 08:10:43;;;;;;;25.45;2.97;;;;;;;-142.75;100.00;76942.34;5079024;28;20897;-66
2023/01/11 08:15:59;;;;;;;17.85;2.85;;;;;;;-142.75;100.00;76938.41;5079485;28;20039;-65
2023/01/11 08:18:25;;;;;;;16.02;2.22;;;;;;;-142.75;100.00;76932.50;5078757;28;20497;-66
2023/01/11 08:20:51;;;;;;;9.88;2.10;;;;;;;-142.75;100.00;76932.50;5079778;28;20043;-65
2023/01/11 08:23:17;;;;;;;20.15;2.65;;;;;;;-142.75;100.00;76930.53;5079991;28;20020;-65
2023/01/11 08:25:43;;;;;;;18.55;2.30;;;;;;;-142.75;100.00;76952.19;5061715;28;20035;-65
2023/01/11 08:28:09;;;;;;;;;;;;;;;-142.75;100.00;76956.13;5079183;28;20024;-66
2023/01/11 08:30:35;;;;;;;10.63;2.10;;;;;;;-142.75;100.00;76964.00;5079695;28;19920;-66
2023/01/11 08:33:01;;;;;;;14.77;2.38;;;;;;;-142.75;100.00;76967.94;5079312;28;20024;-67
2023/01/11 08:35:27;;;;;;;16.50;2.40;;;;;;;-142.75;100.00;76965.97;5079246;28;20031;-67
2023/01/11 08:37:53;;;;;;;;;;;;;;;-142.75;100.00;76958.09;5079534;28;20108;-66
2023/01/11 08:40:18;;;;;;;15.40;2.45;;;;;;;-142.75;100.00;76969.91;5061162;28;19919;-65
2023/01/11 08:42:44;;;;;;;16.92;2.65;;;;;;;-142.75;100.00;76967.94;5079582;28;20473;-66
2023/01/11 08:45:09;;;;;;;14.18;2.22;;;;;;;-142.75;100.00;76954.16;5079347;28;20102;-66
2023/01/11 08:47:35;;;;;;;21.10;2.97;;;;;;;-142.75;100.00;76948.25;5060407;28;20032;-65
2023/01/11 08:50:00;;;;;;;22.42;2.70;;;;;;;-142.75;100.00;76926.59;5079217;28;20012;-65
2023/01/11 08:52:25;;;;;;;11.45;2.28;;;;;;;-142.75;100.00;76914.78;5079123;28;20422;-65
2023/01/11 08:54:51;;;;;;;9.15;1.80;;;;;;;-142.75;100.00;76893.13;5079554;28;20022;-66
2023/01/11 08:57:16;;;;;;;15.23;1.95;;;;;;;-142.75;100.00;76881.31;5078313;28;20034;-64
2023/01/11 08:59:41;;;;;;;29.17;2.45;;;;;;;-142.75;100.00;76861.63;5079127;28;20070;-66
2023/01/11 09:02:08;;;;;;;19.33;2.50;;;;;;;-142.75;100.00;76845.88;5060980;28;20051;-65
2023/01/11 09:04:33;;;;;;;21.45;2.17;;;;;;;-142.75;100.00;76810.44;5079089;28;20016;-66
2023/01/11 09:06:59;;;;;;;13.10;2.30;;;;;;;-142.75;100.00;76798.66;5078349;28;20043;-66
2023/01/11 09:09:24;;;;;;;;;;;;;;;-142.75;100.00;76767.16;5079148;28;20024;-65
2023/01/11 09:11:53;;;;;;;17.85;1.65;;;;;;;-142.75;100.00;76743.53;5079429;28;20652;-66
2023/01/11 09:14:18;;;;;;;15.75;1.98;;;;;;;-142.75;100.00;76769.13;5079018;28;20553;-65
2023/01/11 09:16:44;;;;;;;14.90;1.65;;;;;;;-142.75;100.00;76735.66;5078146;28;20031;-65
2023/01/11 09:19:09;;;;;;;11.63;2.13;;;;;;;-142.75;100.00;76704.16;5078822;28;20024;-66
2023/01/11 09:21:34;;;;;;;;;;;;;;;-142.75;100.00;76684.47;5081814;28;20020;-66
2023/01/11 09:24:00;;;;;;;11.80;1.83;;;;;;;-142.75;100.00;76660.84;5082904;28;20305;-66
2023/01/11 09:26:25;;;;;;;11.57;1.30;;;;;;;-142.75;100.00;76652.97;5082460;28;20427;-67
2023/01/11 09:28:51;;;;;;;;;;;;;;;-142.75;100.00;76619.50;5082488;28;20027;-66
2023/01/11 09:31:16;;;;;;;10.85;1.80;;;;;;;-142.75;100.00;76576.19;5064701;28;19912;-66
2023/01/11 09:33:41;;;;;;;;;;;;;;;-142.75;100.00;76544.69;5083368;28;20032;-66
2023/01/11 09:36:07;;;;;;;16.65;2.00;;;;;;;-142.75;100.00;76542.72;5082171;28;19912;-66
2023/01/11 09:38:32;;;;;;;17.95;2.20;;;;;;;-142.75;100.00;76546.66;5064041;28;20066;-66
2023/01/11 09:41:20;;;;;;;;;;;;;;;-142.75;100.00;76532.88;5064590;28;20023;-64
2023/01/11 09:43:54;;;;;;;19.67;1.88;;;;;;;-142.75;100.00;76499.44;5082838;28;19912;-66
2023/01/11 09:46:19;;;;;;;10.52;1.60;;;;;;;-142.75;100.00;76501.41;5082340;28;20024;-66
2023/01/11 09:48:47;;;;;;;;;;;;;;;-142.75;100.00;76491.56;5082140;28;20179;-66
2023/01/11 09:51:18;;;;;;;12.93;1.52;;;;;;;-142.75;100.00;76487.63;5082342;28;19922;-66
2023/01/11 09:53:51;;;;;;;12.60;1.95;;;;;;;-142.75;100.00;76462.03;5082210;28;20035;-66
2023/01/11 09:56:24;;;;;;;12.07;1.60;;;;;;;-142.75;100.00;76464.00;5082412;28;20574;-66
2023/01/11 09:59:04;;;;;;;15.13;1.90;;;;;;;-142.75;100.00;76464.00;5081916;28;20024;-66
2023/01/11 10:01:37;;;;;;;11.32;1.98;;;;;;;-142.75;100.00;76467.94;5082397;28;20032;-66
2023/01/11 10:04:25;;;;;;;14.75;2.00;;;;;;;-142.75;100.00;76479.75;5082051;28;20031;-67
2023/01/11 10:07:15;;;;;;;12.75;1.80;;;;;;;-142.75;100.00;76477.78;5081485;28;20028;-65
2023/01/11 10:09:46;;;;;;;16.65;1.90;;;;;;;-142.75;100.00;76458.09;5082354;28;20055;-66
2023/01/11 10:13:03;;;;;;;6.85;1.15;;;;;;;-142.75;100.00;76483.69;5081877;28;20048;-66
2023/01/11 10:15:44;;;;;;;15.63;2.28;;;;;;;-142.75;100.00;76464.00;4998923;28;20029;-67
2023/01/11 10:18:30;;;;;;;16.58;2.40;;;;;;;-142.75;100.00;76487.63;5072868;28;20036;-66
2023/01/11 10:21:10;;;;;;;11.32;1.60;;;;;;;-142.75;100.00;76456.13;5081939;28;20031;-65
2023/01/11 10:23:49;;;;;;;10.60;1.92;;;;;;;-142.75;100.00;76465.97;5081561;28;20724;-65
2023/01/11 10:26:26;;;;;;;16.60;1.60;;;;;;;-142.75;100.00;76448.25;5081469;28;20030;-66
2023/01/11 10:29:21;;;;;;;;;;;;;;;-142.75;100.00;76436.44;5082211;28;20477;-66
2023/01/11 10:32:12;;;;;;;11.65;1.58;;;;;;;-142.75;100.00;76450.22;5063346;28;19955;-67
2023/01/11 10:40:39;;;;;;;15.13;1.60;;;;;;;-142.75;100.00;76440.38;5081469;28;20036;-66
2023/01/11 10:43:08;;;;;;;;;;;;;;;-142.75;100.00;76456.13;5081957;28;20115;-67
2023/01/11 10:45:43;;;;;;;11.10;1.77;;;;;;;-142.75;100.00;76430.53;5081511;28;19919;-67
2023/01/11 10:48:35;;;;;;;20.33;1.90;;;;;;;-142.75;100.00;76456.13;5080634;28;20031;-66
2023/01/11 10:51:28;;;;;;;7.53;1.45;;;;;;;-142.75;100.00;76460.06;5081361;28;20043;-66
2023/01/11 10:54:12;;;;;;;16.17;1.90;;;;;;;-142.75;100.00;76479.75;5063634;28;20055;-66
2023/01/11 10:57:10;;;;;;;13.05;1.63;;;;;;;-142.75;100.00;76560.44;5080591;28;20039;-67
2023/01/11 10:59:55;;;;;;;14.65;2.65;;;;;;;-142.75;100.00;76542.72;5064832;28;20081;-66
2023/01/11 11:02:41;;;;;;;11.32;1.50;;;;;;;-142.75;100.00;76481.72;5062994;28;20035;-67
2023/01/11 11:05:22;;;;;;;9.38;1.30;;;;;;;-142.75;100.00;76462.03;5062515;28;20080;-66
2023/01/11 11:08:29;;;;;;;12.70;2.20;;;;;;;-142.75;100.00;76538.78;5062125;28;20035;-66
2023/01/11 11:11:02;;;;;;;20.75;2.67;;;;;;;-142.75;100.00;76538.78;5081124;28;20032;-66
2023/01/11 11:13:39;;;;;;;19.10;1.85;;;;;;;-142.75;100.00;76564.38;5080640;28;20031;-67
2023/01/11 11:16:17;;;;;;;21.00;2.45;;;;;;;-142.75;100.00;76619.50;5062681;28;20036;-67
2023/01/11 11:18:42;;;;;;;11.93;2.28;;;;;;;-142.75;100.00;76595.88;5079898;28;20024;-67
2023/01/11 11:21:19;;;;;;;19.60;2.47;;;;;;;-142.75;100.00;76550.59;5080541;28;20058;-66
2023/01/11 11:23:50;;;;;;;12.85;1.63;;;;;;;-142.75;100.00;76570.28;5080613;28;20508;-67
2023/01/11 11:26:16;;;;;;;18.75;2.50;;;;;;;-142.75;100.00;76574.22;5080678;28;20020;-67
2023/01/11 11:28:57;;;;;;;;;;;;;;;-142.75;100.00;76633.28;5062322;28;20058;-66
2023/01/11 11:31:22;;;;;;;13.65;2.38;;;;;;;-142.75;100.00;76672.66;5080480;28;19916;-66
2023/01/11 11:33:48;;;;;;;12.95;2.22;;;;;;;-142.75;100.00;76672.66;5080287;28;20117;-66
2023/01/11 11:36:13;;;;;;;;;;;;;;;-142.75;100.00;76639.19;5080677;28;20103;-67
2023/01/11 11:39:01;;;;;;;10.07;1.95;;;;;;;-142.75;100.00;76654.94;5079571;28;19976;-66
2023/01/11 11:41:26;;;;;;;17.30;2.05;;;;;;;-142.75;100.00;76688.41;5062200;28;20034;-67
2023/01/11 11:44:13;;;;;;;15.48;1.95;;;;;;;-142.75;100.00;76759.28;5080305;28;20036;-66
2023/01/11 11:46:39;;;;;;;8.75;1.50;;;;;;;-142.75;100.00;76727.78;5079381;28;20460;-67
2023/01/11 11:49:07;;;;;;;;;;;;;;;-142.75;100.00;76733.69;5062394;28;20084;-67
2023/01/11 11:51:32;;;;;;;13.55;2.00;;;;;;;-142.75;100.00;76749.44;5080054;28;20017;-66
2023/01/11 11:53:58;;;;;;;11.70;2.33;;;;;;;-142.75;100.00;76792.75;5080098;28;20028;-67